sensor_id;sensor_type;location;lat;lon;timestamp;temperature;humidity
32706;DHT22;19094;50.972;3.538;2022-08-19T00:01:47;26.70;55.10
32706;DHT22;19094;50.972;3.538;2022-08-19T00:04:15;26.70;55.00
32706;DHT22;19094;50.972;3.538;2022-08-19T00:06:43;26.70;55.30
32706;DHT22;19094;50.972;3.538;2022-08-19T00:09:11;26.70;55.30
32706;DHT22;19094;50.972;3.538;2022-08-19T00:11:38;26.60;55.50
32706;DHT22;19094;50.972;3.538;2022-08-19T00:14:06;26.60;54.90
32706;DHT22;19094;50.972;3.538;2022-08-19T00:16:32;26.60;55.10
32706;DHT22;19094;50.972;3.538;2022-08-19T00:18:58;26.50;55.30
32706;DHT22;19094;50.972;3.538;2022-08-19T00:21:25;26.50;55.30
32706;DHT22;19094;50.972;3.538;2022-08-19T00:23:52;26.50;55.30
32706;DHT22;19094;50.972;3.538;2022-08-19T00:26:18;26.50;55.30
32706;DHT22;19094;50.972;3.538;2022-08-19T00:28:44;26.50;55.00
32706;DHT22;19094;50.972;3.538;2022-08-19T00:31:11;26.40;55.40
32706;DHT22;19094;50.972;3.538;2022-08-19T00:33:37;26.40;55.30
32706;DHT22;19094;50.972;3.538;2022-08-19T00:36:06;26.40;55.30
32706;DHT22;19094;50.972;3.538;2022-08-19T00:38:33;26.30;55.40
32706;DHT22;19094;50.972;3.538;2022-08-19T00:40:59;26.30;55.50
32706;DHT22;19094;50.972;3.538;2022-08-19T00:43:26;26.30;55.40
32706;DHT22;19094;50.972;3.538;2022-08-19T00:45:53;26.30;55.40
32706;DHT22;19094;50.972;3.538;2022-08-19T00:48:19;26.20;55.40
32706;DHT22;19094;50.972;3.538;2022-08-19T00:50:45;26.20;55.40
32706;DHT22;19094;50.972;3.538;2022-08-19T00:53:16;26.20;55.50
32706;DHT22;19094;50.972;3.538;2022-08-19T00:55:50;26.20;55.50
32706;DHT22;19094;50.972;3.538;2022-08-19T00:58:19;26.10;55.50
32706;DHT22;19094;50.972;3.538;2022-08-19T01:00:46;26.10;55.60
32706;DHT22;19094;50.972;3.538;2022-08-19T01:03:17;26.10;55.60
32706;DHT22;19094;50.972;3.538;2022-08-19T01:05:44;26.10;55.50
32706;DHT22;19094;50.972;3.538;2022-08-19T01:08:11;26.10;55.60
32706;DHT22;19094;50.972;3.538;2022-08-19T01:10:41;26.00;55.50
32706;DHT22;19094;50.972;3.538;2022-08-19T01:13:07;26.00;55.60
32706;DHT22;19094;50.972;3.538;2022-08-19T01:15:40;26.00;55.60
32706;DHT22;19094;50.972;3.538;2022-08-19T01:18:12;26.00;55.70
32706;DHT22;19094;50.972;3.538;2022-08-19T01:20:40;26.00;55.70
32706;DHT22;19094;50.972;3.538;2022-08-19T01:23:06;25.90;55.90
32706;DHT22;19094;50.972;3.538;2022-08-19T01:25:39;25.80;55.80
32706;DHT22;19094;50.972;3.538;2022-08-19T01:28:07;25.90;55.90
32706;DHT22;19094;50.972;3.538;2022-08-19T01:30:34;25.80;55.80
32706;DHT22;19094;50.972;3.538;2022-08-19T01:33:01;25.80;56.00
32706;DHT22;19094;50.972;3.538;2022-08-19T01:35:29;25.80;55.90
32706;DHT22;19094;50.972;3.538;2022-08-19T01:38:01;25.80;56.10
32706;DHT22;19094;50.972;3.538;2022-08-19T01:40:32;25.80;56.10
32706;DHT22;19094;50.972;3.538;2022-08-19T01:42:58;25.80;56.00
32706;DHT22;19094;50.972;3.538;2022-08-19T01:45:26;25.70;56.10
32706;DHT22;19094;50.972;3.538;2022-08-19T01:47:52;25.70;56.20
32706;DHT22;19094;50.972;3.538;2022-08-19T01:50:18;25.70;56.30
32706;DHT22;19094;50.972;3.538;2022-08-19T01:52:44;25.70;56.50
32706;DHT22;19094;50.972;3.538;2022-08-19T01:55:14;25.70;56.40
32706;DHT22;19094;50.972;3.538;2022-08-19T01:57:44;25.60;56.50
32706;DHT22;19094;50.972;3.538;2022-08-19T02:00:15;25.60;56.40
32706;DHT22;19094;50.972;3.538;2022-08-19T02:02:42;25.60;56.40
32706;DHT22;19094;50.972;3.538;2022-08-19T02:05:08;25.60;56.60
32706;DHT22;19094;50.972;3.538;2022-08-19T02:07:38;25.60;56.40
32706;DHT22;19094;50.972;3.538;2022-08-19T02:10:09;25.60;56.40
32706;DHT22;19094;50.972;3.538;2022-08-19T02:12:35;25.50;56.50
32706;DHT22;19094;50.972;3.538;2022-08-19T02:15:01;25.60;56.30
32706;DHT22;19094;50.972;3.538;2022-08-19T02:17:28;25.60;56.40
32706;DHT22;19094;50.972;3.538;2022-08-19T02:19:55;25.50;56.20
32706;DHT22;19094;50.972;3.538;2022-08-19T02:22:21;25.50;56.20
32706;DHT22;19094;50.972;3.538;2022-08-19T02:24:47;25.60;56.20
32706;DHT22;19094;50.972;3.538;2022-08-19T02:27:14;25.50;56.30
32706;DHT22;19094;50.972;3.538;2022-08-19T02:29:40;25.50;56.20
32706;DHT22;19094;50.972;3.538;2022-08-19T02:32:07;25.40;56.20
32706;DHT22;19094;50.972;3.538;2022-08-19T02:34:33;25.40;56.30
32706;DHT22;19094;50.972;3.538;2022-08-19T02:36:59;25.50;56.50
32706;DHT22;19094;50.972;3.538;2022-08-19T02:39:25;25.40;56.40
32706;DHT22;19094;50.972;3.538;2022-08-19T02:41:51;25.40;56.60
32706;DHT22;19094;50.972;3.538;2022-08-19T02:44:18;25.40;56.50
32706;DHT22;19094;50.972;3.538;2022-08-19T02:46:45;25.40;56.50
32706;DHT22;19094;50.972;3.538;2022-08-19T02:49:11;25.40;56.60
32706;DHT22;19094;50.972;3.538;2022-08-19T02:51:40;25.30;56.70
32706;DHT22;19094;50.972;3.538;2022-08-19T02:54:08;25.30;56.70
32706;DHT22;19094;50.972;3.538;2022-08-19T02:56:36;25.30;56.80
32706;DHT22;19094;50.972;3.538;2022-08-19T02:59:03;25.30;56.80
32706;DHT22;19094;50.972;3.538;2022-08-19T03:01:35;25.30;56.80
32706;DHT22;19094;50.972;3.538;2022-08-19T03:04:04;25.30;56.90
32706;DHT22;19094;50.972;3.538;2022-08-19T03:06:30;25.20;56.80
32706;DHT22;19094;50.972;3.538;2022-08-19T03:08:56;25.20;56.90
32706;DHT22;19094;50.972;3.538;2022-08-19T03:11:27;25.20;56.80
32706;DHT22;19094;50.972;3.538;2022-08-19T03:13:53;25.20;56.70
32706;DHT22;19094;50.972;3.538;2022-08-19T03:16:22;25.20;57.00
32706;DHT22;19094;50.972;3.538;2022-08-19T03:18:48;25.10;56.90
32706;DHT22;19094;50.972;3.538;2022-08-19T03:21:20;25.10;57.00
32706;DHT22;19094;50.972;3.538;2022-08-19T03:23:45;25.10;57.00
32706;DHT22;19094;50.972;3.538;2022-08-19T03:26:11;25.10;57.00
32706;DHT22;19094;50.972;3.538;2022-08-19T03:28:37;25.10;57.00
32706;DHT22;19094;50.972;3.538;2022-08-19T03:31:09;25.10;56.80
32706;DHT22;19094;50.972;3.538;2022-08-19T03:33:36;25.10;57.00
32706;DHT22;19094;50.972;3.538;2022-08-19T03:36:15;25.10;57.10
32706;DHT22;19094;50.972;3.538;2022-08-19T03:38:47;25.00;57.00
32706;DHT22;19094;50.972;3.538;2022-08-19T03:41:21;25.10;57.20
32706;DHT22;19094;50.972;3.538;2022-08-19T03:43:47;25.00;57.10
32706;DHT22;19094;50.972;3.538;2022-08-19T03:46:16;25.00;57.10
32706;DHT22;19094;50.972;3.538;2022-08-19T03:48:45;25.10;57.00
32706;DHT22;19094;50.972;3.538;2022-08-19T03:51:29;25.10;57.00
32706;DHT22;19094;50.972;3.538;2022-08-19T03:53:57;25.00;56.90
32706;DHT22;19094;50.972;3.538;2022-08-19T03:56:23;25.00;57.20
32706;DHT22;19094;50.972;3.538;2022-08-19T03:58:51;25.00;57.10
32706;DHT22;19094;50.972;3.538;2022-08-19T04:01:22;24.90;57.20
32706;DHT22;19094;50.972;3.538;2022-08-19T04:03:49;25.00;57.20
32706;DHT22;19094;50.972;3.538;2022-08-19T04:06:21;24.90;57.30
32706;DHT22;19094;50.972;3.538;2022-08-19T04:08:49;24.90;57.40
32706;DHT22;19094;50.972;3.538;2022-08-19T04:11:18;24.80;57.30
32706;DHT22;19094;50.972;3.538;2022-08-19T04:13:49;24.80;57.50
32706;DHT22;19094;50.972;3.538;2022-08-19T04:16:17;24.90;57.30
32706;DHT22;19094;50.972;3.538;2022-08-19T04:18:43;24.80;57.50
32706;DHT22;19094;50.972;3.538;2022-08-19T04:21:18;24.80;57.50
32706;DHT22;19094;50.972;3.538;2022-08-19T04:23:44;24.80;57.50
32706;DHT22;19094;50.972;3.538;2022-08-19T04:26:19;24.80;57.60
32706;DHT22;19094;50.972;3.538;2022-08-19T04:28:45;24.70;57.80
32706;DHT22;19094;50.972;3.538;2022-08-19T04:31:17;24.70;57.90
32706;DHT22;19094;50.972;3.538;2022-08-19T04:33:43;24.60;57.80
32706;DHT22;19094;50.972;3.538;2022-08-19T04:36:16;24.70;58.00
32706;DHT22;19094;50.972;3.538;2022-08-19T04:38:44;24.70;57.80
32706;DHT22;19094;50.972;3.538;2022-08-19T04:41:10;24.60;58.00
32706;DHT22;19094;50.972;3.538;2022-08-19T04:43:54;24.60;58.00
32706;DHT22;19094;50.972;3.538;2022-08-19T04:46:20;24.60;58.10
32706;DHT22;19094;50.972;3.538;2022-08-19T04:48:45;24.50;58.10
32706;DHT22;19094;50.972;3.538;2022-08-19T04:51:12;24.50;58.30
32706;DHT22;19094;50.972;3.538;2022-08-19T04:53:40;24.50;58.40
32706;DHT22;19094;50.972;3.538;2022-08-19T04:56:10;24.50;58.40
32706;DHT22;19094;50.972;3.538;2022-08-19T04:58:37;24.50;58.60
32706;DHT22;19094;50.972;3.538;2022-08-19T05:01:03;24.40;58.50
32706;DHT22;19094;50.972;3.538;2022-08-19T05:03:29;24.40;58.60
32706;DHT22;19094;50.972;3.538;2022-08-19T05:06:11;24.30;58.70
32706;DHT22;19094;50.972;3.538;2022-08-19T05:08:38;24.30;58.80
32706;DHT22;19094;50.972;3.538;2022-08-19T05:11:14;24.30;58.90
32706;DHT22;19094;50.972;3.538;2022-08-19T05:13:40;24.30;59.00
32706;DHT22;19094;50.972;3.538;2022-08-19T05:16:06;24.30;58.90
32706;DHT22;19094;50.972;3.538;2022-08-19T05:18:32;24.30;58.90
32706;DHT22;19094;50.972;3.538;2022-08-19T05:21:19;24.30;59.10
32706;DHT22;19094;50.972;3.538;2022-08-19T05:24:04;24.30;59.10
32706;DHT22;19094;50.972;3.538;2022-08-19T05:26:38;24.30;59.30
32706;DHT22;19094;50.972;3.538;2022-08-19T05:29:05;24.20;59.30
32706;DHT22;19094;50.972;3.538;2022-08-19T05:31:32;24.30;59.40
32706;DHT22;19094;50.972;3.538;2022-08-19T05:33:58;24.30;59.30
32706;DHT22;19094;50.972;3.538;2022-08-19T05:36:26;24.20;59.30
32706;DHT22;19094;50.972;3.538;2022-08-19T05:38:52;24.30;59.40
32706;DHT22;19094;50.972;3.538;2022-08-19T05:41:20;24.30;59.50
32706;DHT22;19094;50.972;3.538;2022-08-19T05:43:45;24.30;59.30
32706;DHT22;19094;50.972;3.538;2022-08-19T05:46:20;24.30;59.30
32706;DHT22;19094;50.972;3.538;2022-08-19T05:48:46;24.30;59.50
32706;DHT22;19094;50.972;3.538;2022-08-19T05:51:12;24.30;59.20
32706;DHT22;19094;50.972;3.538;2022-08-19T05:53:37;24.40;58.90
32706;DHT22;19094;50.972;3.538;2022-08-19T05:56:14;24.50;58.80
32706;DHT22;19094;50.972;3.538;2022-08-19T05:58:42;24.60;58.60
32706;DHT22;19094;50.972;3.538;2022-08-19T06:01:12;24.60;59.50
32706;DHT22;19094;50.972;3.538;2022-08-19T06:03:38;24.50;58.90
32706;DHT22;19094;50.972;3.538;2022-08-19T06:06:07;24.50;59.10
32706;DHT22;19094;50.972;3.538;2022-08-19T06:08:33;24.50;59.30
32706;DHT22;19094;50.972;3.538;2022-08-19T06:11:17;24.40;59.20
32706;DHT22;19094;50.972;3.538;2022-08-19T06:13:44;24.50;58.90
32706;DHT22;19094;50.972;3.538;2022-08-19T06:16:13;24.40;59.20
32706;DHT22;19094;50.972;3.538;2022-08-19T06:18:46;24.50;59.10
32706;DHT22;19094;50.972;3.538;2022-08-19T06:21:12;24.50;59.30
32706;DHT22;19094;50.972;3.538;2022-08-19T06:23:38;24.50;59.60
32706;DHT22;19094;50.972;3.538;2022-08-19T06:26:04;24.60;59.60
32706;DHT22;19094;50.972;3.538;2022-08-19T06:28:29;24.70;59.60
32706;DHT22;19094;50.972;3.538;2022-08-19T06:30:55;24.70;59.40
32706;DHT22;19094;50.972;3.538;2022-08-19T06:33:21;24.70;59.60
32706;DHT22;19094;50.972;3.538;2022-08-19T06:35:46;24.80;59.50
32706;DHT22;19094;50.972;3.538;2022-08-19T06:38:12;24.80;59.50
32706;DHT22;19094;50.972;3.538;2022-08-19T06:40:38;24.80;59.50
32706;DHT22;19094;50.972;3.538;2022-08-19T06:43:03;24.70;59.40
32706;DHT22;19094;50.972;3.538;2022-08-19T06:45:29;24.70;59.50
32706;DHT22;19094;50.972;3.538;2022-08-19T06:47:56;24.80;59.40
32706;DHT22;19094;50.972;3.538;2022-08-19T06:50:23;24.70;59.40
32706;DHT22;19094;50.972;3.538;2022-08-19T06:52:49;24.80;59.80
32706;DHT22;19094;50.972;3.538;2022-08-19T06:55:15;24.80;59.20
32706;DHT22;19094;50.972;3.538;2022-08-19T06:57:41;24.80;58.90
32706;DHT22;19094;50.972;3.538;2022-08-19T07:00:08;24.80;58.80
32706;DHT22;19094;50.972;3.538;2022-08-19T07:02:41;24.80;59.00
32706;DHT22;19094;50.972;3.538;2022-08-19T07:05:07;24.90;59.10
32706;DHT22;19094;50.972;3.538;2022-08-19T07:07:33;24.80;59.30
32706;DHT22;19094;50.972;3.538;2022-08-19T07:10:00;24.80;59.00
32706;DHT22;19094;50.972;3.538;2022-08-19T07:12:31;24.80;59.10
32706;DHT22;19094;50.972;3.538;2022-08-19T07:14:59;24.80;58.90
32706;DHT22;19094;50.972;3.538;2022-08-19T07:17:25;24.90;58.90
32706;DHT22;19094;50.972;3.538;2022-08-19T07:19:51;24.90;58.90
32706;DHT22;19094;50.972;3.538;2022-08-19T07:22:17;24.90;58.90
32706;DHT22;19094;50.972;3.538;2022-08-19T07:24:43;24.90;59.00
32706;DHT22;19094;50.972;3.538;2022-08-19T07:27:09;24.90;58.70
32706;DHT22;19094;50.972;3.538;2022-08-19T07:29:35;24.90;58.60
32706;DHT22;19094;50.972;3.538;2022-08-19T07:32:02;24.90;58.90
32706;DHT22;19094;50.972;3.538;2022-08-19T07:34:30;24.90;58.70
32706;DHT22;19094;50.972;3.538;2022-08-19T07:36:58;24.90;58.70
32706;DHT22;19094;50.972;3.538;2022-08-19T07:39:27;24.90;58.60
32706;DHT22;19094;50.972;3.538;2022-08-19T07:41:55;25.00;58.50
32706;DHT22;19094;50.972;3.538;2022-08-19T07:44:21;24.90;58.60
32706;DHT22;19094;50.972;3.538;2022-08-19T07:46:50;24.80;59.00
32706;DHT22;19094;50.972;3.538;2022-08-19T07:49:18;24.80;58.70
32706;DHT22;19094;50.972;3.538;2022-08-19T07:51:52;24.90;58.70
32706;DHT22;19094;50.972;3.538;2022-08-19T07:54:21;25.00;58.50
32706;DHT22;19094;50.972;3.538;2022-08-19T07:56:47;25.00;58.40
32706;DHT22;19094;50.972;3.538;2022-08-19T07:59:12;25.00;58.60
32706;DHT22;19094;50.972;3.538;2022-08-19T08:01:39;24.90;59.20
32706;DHT22;19094;50.972;3.538;2022-08-19T08:04:06;25.00;58.80
32706;DHT22;19094;50.972;3.538;2022-08-19T08:06:50;25.00;58.30
32706;DHT22;19094;50.972;3.538;2022-08-19T08:09:39;25.00;58.30
32706;DHT22;19094;50.972;3.538;2022-08-19T08:12:18;25.00;58.70
32706;DHT22;19094;50.972;3.538;2022-08-19T08:14:51;25.00;58.50
32706;DHT22;19094;50.972;3.538;2022-08-19T08:17:20;25.00;58.90
32706;DHT22;19094;50.972;3.538;2022-08-19T08:19:46;25.00;58.70
32706;DHT22;19094;50.972;3.538;2022-08-19T08:22:16;25.00;58.40
32706;DHT22;19094;50.972;3.538;2022-08-19T08:25:05;25.10;58.50
32706;DHT22;19094;50.972;3.538;2022-08-19T08:27:31;25.00;58.40
32706;DHT22;19094;50.972;3.538;2022-08-19T08:30:00;25.00;58.50
32706;DHT22;19094;50.972;3.538;2022-08-19T08:32:26;25.10;58.30
32706;DHT22;19094;50.972;3.538;2022-08-19T08:34:52;25.00;58.40
32706;DHT22;19094;50.972;3.538;2022-08-19T08:37:19;25.10;58.50
32706;DHT22;19094;50.972;3.538;2022-08-19T08:39:45;25.10;58.40
32706;DHT22;19094;50.972;3.538;2022-08-19T08:42:24;25.10;58.60
32706;DHT22;19094;50.972;3.538;2022-08-19T08:45:02;25.10;58.20
32706;DHT22;19094;50.972;3.538;2022-08-19T08:47:32;25.10;58.70
32706;DHT22;19094;50.972;3.538;2022-08-19T08:50:12;25.10;58.40
32706;DHT22;19094;50.972;3.538;2022-08-19T08:52:44;25.10;58.60
32706;DHT22;19094;50.972;3.538;2022-08-19T08:55:23;25.10;58.60
32706;DHT22;19094;50.972;3.538;2022-08-19T09:00:24;25.10;58.30
32706;DHT22;19094;50.972;3.538;2022-08-19T09:02:52;25.10;58.60
32706;DHT22;19094;50.972;3.538;2022-08-19T09:05:19;25.10;58.40
32706;DHT22;19094;50.972;3.538;2022-08-19T09:15:37;25.20;58.60
32706;DHT22;19094;50.972;3.538;2022-08-19T09:18:05;25.20;58.90
32706;DHT22;19094;50.972;3.538;2022-08-19T09:20:31;25.20;58.60
32706;DHT22;19094;50.972;3.538;2022-08-19T09:22:57;25.30;58.50
32706;DHT22;19094;50.972;3.538;2022-08-19T09:25:25;25.30;58.50
32706;DHT22;19094;50.972;3.538;2022-08-19T09:27:52;25.40;58.40
32706;DHT22;19094;50.972;3.538;2022-08-19T09:30:25;25.40;59.10
32706;DHT22;19094;50.972;3.538;2022-08-19T09:32:52;25.40;59.30
32706;DHT22;19094;50.972;3.538;2022-08-19T09:35:19;25.40;58.70
32706;DHT22;19094;50.972;3.538;2022-08-19T09:37:48;25.50;59.60
32706;DHT22;19094;50.972;3.538;2022-08-19T09:40:15;25.50;59.40
32706;DHT22;19094;50.972;3.538;2022-08-19T09:42:42;25.60;59.30
32706;DHT22;19094;50.972;3.538;2022-08-19T09:45:09;25.50;58.60
32706;DHT22;19094;50.972;3.538;2022-08-19T09:47:36;25.60;59.30
32706;DHT22;19094;50.972;3.538;2022-08-19T09:50:08;25.60;58.30
32706;DHT22;19094;50.972;3.538;2022-08-19T09:52:34;25.70;58.40
32706;DHT22;19094;50.972;3.538;2022-08-19T09:55:05;25.70;57.80
32706;DHT22;19094;50.972;3.538;2022-08-19T09:57:32;25.70;57.70
32706;DHT22;19094;50.972;3.538;2022-08-19T09:59:57;25.70;57.80
32706;DHT22;19094;50.972;3.538;2022-08-19T10:02:23;25.70;57.90
32706;DHT22;19094;50.972;3.538;2022-08-19T10:04:50;25.70;57.60
32706;DHT22;19094;50.972;3.538;2022-08-19T10:07:34;25.70;57.80
32706;DHT22;19094;50.972;3.538;2022-08-19T10:10:01;25.70;57.80
32706;DHT22;19094;50.972;3.538;2022-08-19T10:12:27;25.70;58.30
32706;DHT22;19094;50.972;3.538;2022-08-19T10:14:53;25.70;58.00
32706;DHT22;19094;50.972;3.538;2022-08-19T10:17:19;25.70;57.50
32706;DHT22;19094;50.972;3.538;2022-08-19T10:19:45;25.70;57.90
32706;DHT22;19094;50.972;3.538;2022-08-19T10:22:11;25.70;58.00
32706;DHT22;19094;50.972;3.538;2022-08-19T10:24:39;25.60;57.40
32706;DHT22;19094;50.972;3.538;2022-08-19T10:27:05;25.70;58.40
32706;DHT22;19094;50.972;3.538;2022-08-19T10:29:31;25.70;58.40
32706;DHT22;19094;50.972;3.538;2022-08-19T10:32:04;25.70;58.00
32706;DHT22;19094;50.972;3.538;2022-08-19T10:34:33;25.70;58.20
32706;DHT22;19094;50.972;3.538;2022-08-19T10:36:59;25.70;58.20
32706;DHT22;19094;50.972;3.538;2022-08-19T10:39:33;25.70;58.40
32706;DHT22;19094;50.972;3.538;2022-08-19T10:41:59;25.60;58.10
32706;DHT22;19094;50.972;3.538;2022-08-19T10:44:25;25.60;57.50
32706;DHT22;19094;50.972;3.538;2022-08-19T10:46:51;25.60;58.40
32706;DHT22;19094;50.972;3.538;2022-08-19T10:49:18;25.70;58.10
32706;DHT22;19094;50.972;3.538;2022-08-19T10:51:44;25.70;58.30
32706;DHT22;19094;50.972;3.538;2022-08-19T10:54:28;25.70;58.10
32706;DHT22;19094;50.972;3.538;2022-08-19T10:57:13;25.70;58.00
32706;DHT22;19094;50.972;3.538;2022-08-19T10:59:39;25.70;58.70
32706;DHT22;19094;50.972;3.538;2022-08-19T11:02:09;25.60;58.50
32706;DHT22;19094;50.972;3.538;2022-08-19T11:04:39;25.60;58.10
32706;DHT22;19094;50.972;3.538;2022-08-19T11:07:05;25.60;58.40
32706;DHT22;19094;50.972;3.538;2022-08-19T11:09:35;25.70;58.10
32706;DHT22;19094;50.972;3.538;2022-08-19T11:12:03;25.60;58.30
32706;DHT22;19094;50.972;3.538;2022-08-19T11:14:29;25.60;58.10
32706;DHT22;19094;50.972;3.538;2022-08-19T11:16:56;25.60;58.30
32706;DHT22;19094;50.972;3.538;2022-08-19T11:19:22;25.60;57.80
32706;DHT22;19094;50.972;3.538;2022-08-19T11:21:50;25.60;57.90
32706;DHT22;19094;50.972;3.538;2022-08-19T11:24:21;25.70;58.00
32706;DHT22;19094;50.972;3.538;2022-08-19T11:26:49;25.70;58.00
32706;DHT22;19094;50.972;3.538;2022-08-19T11:29:18;25.70;57.40
32706;DHT22;19094;50.972;3.538;2022-08-19T11:31:47;25.70;57.60
32706;DHT22;19094;50.972;3.538;2022-08-19T11:34:16;25.70;57.80
32706;DHT22;19094;50.972;3.538;2022-08-19T11:36:44;25.70;57.90
32706;DHT22;19094;50.972;3.538;2022-08-19T11:39:13;25.70;57.70
32706;DHT22;19094;50.972;3.538;2022-08-19T11:41:39;25.70;57.90
32706;DHT22;19094;50.972;3.538;2022-08-19T11:44:05;25.70;57.60
32706;DHT22;19094;50.972;3.538;2022-08-19T11:46:34;25.70;57.80
32706;DHT22;19094;50.972;3.538;2022-08-19T11:49:00;25.70;57.20
32706;DHT22;19094;50.972;3.538;2022-08-19T11:51:27;25.70;57.20
32706;DHT22;19094;50.972;3.538;2022-08-19T11:53:54;25.70;57.10
32706;DHT22;19094;50.972;3.538;2022-08-19T11:56:22;25.70;57.30
32706;DHT22;19094;50.972;3.538;2022-08-19T11:58:48;25.70;57.40
32706;DHT22;19094;50.972;3.538;2022-08-19T12:01:16;25.70;57.60
32706;DHT22;19094;50.972;3.538;2022-08-19T12:03:43;25.70;57.70
32706;DHT22;19094;50.972;3.538;2022-08-19T12:06:15;25.70;58.10
32706;DHT22;19094;50.972;3.538;2022-08-19T12:08:42;25.70;58.10
32706;DHT22;19094;50.972;3.538;2022-08-19T12:11:08;25.70;57.60
32706;DHT22;19094;50.972;3.538;2022-08-19T12:13:36;25.70;58.80
32706;DHT22;19094;50.972;3.538;2022-08-19T12:16:08;25.70;59.20
32706;DHT22;19094;50.972;3.538;2022-08-19T12:18:36;25.70;59.50
32706;DHT22;19094;50.972;3.538;2022-08-19T12:21:03;25.70;59.30
32706;DHT22;19094;50.972;3.538;2022-08-19T12:23:29;25.70;59.50
32706;DHT22;19094;50.972;3.538;2022-08-19T12:25:55;25.70;60.10
32706;DHT22;19094;50.972;3.538;2022-08-19T12:28:24;25.70;59.70
32706;DHT22;19094;50.972;3.538;2022-08-19T12:30:50;25.80;60.20
32706;DHT22;19094;50.972;3.538;2022-08-19T12:33:17;25.90;60.50
32706;DHT22;19094;50.972;3.538;2022-08-19T12:35:44;25.90;59.60
32706;DHT22;19094;50.972;3.538;2022-08-19T12:38:12;26.00;60.20
32706;DHT22;19094;50.972;3.538;2022-08-19T12:40:38;26.10;59.80
32706;DHT22;19094;50.972;3.538;2022-08-19T12:43:06;26.30;59.90
32706;DHT22;19094;50.972;3.538;2022-08-19T12:45:31;26.40;58.60
32706;DHT22;19094;50.972;3.538;2022-08-19T12:47:57;26.50;58.80
32706;DHT22;19094;50.972;3.538;2022-08-19T12:50:23;26.50;58.10
32706;DHT22;19094;50.972;3.538;2022-08-19T12:52:49;26.50;56.90
32706;DHT22;19094;50.972;3.538;2022-08-19T12:55:14;26.50;56.20
32706;DHT22;19094;50.972;3.538;2022-08-19T12:57:40;26.50;56.30
32706;DHT22;19094;50.972;3.538;2022-08-19T13:00:16;26.40;57.50
32706;DHT22;19094;50.972;3.538;2022-08-19T13:02:44;26.30;55.90
32706;DHT22;19094;50.972;3.538;2022-08-19T13:05:14;26.20;56.20
32706;DHT22;19094;50.972;3.538;2022-08-19T13:07:42;26.20;57.30
32706;DHT22;19094;50.972;3.538;2022-08-19T13:10:11;26.10;56.80
32706;DHT22;19094;50.972;3.538;2022-08-19T13:12:37;26.10;56.80
32706;DHT22;19094;50.972;3.538;2022-08-19T13:15:04;26.10;56.70
32706;DHT22;19094;50.972;3.538;2022-08-19T13:17:30;26.10;57.70
32706;DHT22;19094;50.972;3.538;2022-08-19T13:19:56;26.10;57.80
32706;DHT22;19094;50.972;3.538;2022-08-19T13:22:21;26.10;58.00
32706;DHT22;19094;50.972;3.538;2022-08-19T13:24:47;26.10;57.00
32706;DHT22;19094;50.972;3.538;2022-08-19T13:27:15;26.10;57.70
32706;DHT22;19094;50.972;3.538;2022-08-19T13:29:42;26.20;58.70
32706;DHT22;19094;50.972;3.538;2022-08-19T13:32:26;26.10;56.90
32706;DHT22;19094;50.972;3.538;2022-08-19T13:35:12;26.20;56.60
32706;DHT22;19094;50.972;3.538;2022-08-19T13:37:38;26.20;56.60
32706;DHT22;19094;50.972;3.538;2022-08-19T13:40:09;26.30;56.40
32706;DHT22;19094;50.972;3.538;2022-08-19T13:42:42;26.40;56.50
32706;DHT22;19094;50.972;3.538;2022-08-19T13:45:09;26.50;56.00
32706;DHT22;19094;50.972;3.538;2022-08-19T13:47:36;26.50;55.80
32706;DHT22;19094;50.972;3.538;2022-08-19T13:50:12;26.60;55.70
32706;DHT22;19094;50.972;3.538;2022-08-19T13:52:39;26.80;55.50
32706;DHT22;19094;50.972;3.538;2022-08-19T13:55:05;26.90;55.20
32706;DHT22;19094;50.972;3.538;2022-08-19T13:57:32;27.10;54.90
32706;DHT22;19094;50.972;3.538;2022-08-19T13:59:58;27.10;54.50
32706;DHT22;19094;50.972;3.538;2022-08-19T14:02:25;27.20;54.40
32706;DHT22;19094;50.972;3.538;2022-08-19T14:04:51;27.40;54.10
32706;DHT22;19094;50.972;3.538;2022-08-19T14:07:17;27.50;53.80
32706;DHT22;19094;50.972;3.538;2022-08-19T14:09:43;27.60;54.30
32706;DHT22;19094;50.972;3.538;2022-08-19T14:12:08;27.70;53.60
32706;DHT22;19094;50.972;3.538;2022-08-19T14:14:38;27.80;54.70
32706;DHT22;19094;50.972;3.538;2022-08-19T14:17:07;28.10;55.30
32706;DHT22;19094;50.972;3.538;2022-08-19T14:19:35;28.30;52.10
32706;DHT22;19094;50.972;3.538;2022-08-19T14:22:01;28.30;51.80
32706;DHT22;19094;50.972;3.538;2022-08-19T14:24:27;28.40;52.00
32706;DHT22;19094;50.972;3.538;2022-08-19T14:26:57;28.40;52.50
32706;DHT22;19094;50.972;3.538;2022-08-19T14:29:23;28.60;51.30
32706;DHT22;19094;50.972;3.538;2022-08-19T14:31:48;28.90;52.50
32706;DHT22;19094;50.972;3.538;2022-08-19T14:34:14;29.00;50.10
32706;DHT22;19094;50.972;3.538;2022-08-19T14:36:40;29.20;50.00
32706;DHT22;19094;50.972;3.538;2022-08-19T14:39:07;29.50;49.40
32706;DHT22;19094;50.972;3.538;2022-08-19T14:41:34;29.60;49.20
32706;DHT22;19094;50.972;3.538;2022-08-19T14:43:59;29.80;50.00
32706;DHT22;19094;50.972;3.538;2022-08-19T14:46:28;30.10;49.20
32706;DHT22;19094;50.972;3.538;2022-08-19T14:48:55;30.40;49.40
32706;DHT22;19094;50.972;3.538;2022-08-19T14:51:24;30.60;47.20
32706;DHT22;19094;50.972;3.538;2022-08-19T14:53:51;30.70;46.70
32706;DHT22;19094;50.972;3.538;2022-08-19T14:56:20;30.60;47.10
32706;DHT22;19094;50.972;3.538;2022-08-19T14:58:46;30.50;46.90
32706;DHT22;19094;50.972;3.538;2022-08-19T15:01:13;30.50;48.10
32706;DHT22;19094;50.972;3.538;2022-08-19T15:03:39;30.60;47.20
32706;DHT22;19094;50.972;3.538;2022-08-19T15:06:07;30.50;47.00
32706;DHT22;19094;50.972;3.538;2022-08-19T15:08:34;30.40;47.30
32706;DHT22;19094;50.972;3.538;2022-08-19T15:11:01;30.20;47.80
32706;DHT22;19094;50.972;3.538;2022-08-19T15:13:28;30.10;48.00
32706;DHT22;19094;50.972;3.538;2022-08-19T15:15:56;30.00;48.00
32706;DHT22;19094;50.972;3.538;2022-08-19T15:18:22;29.90;48.50
32706;DHT22;19094;50.972;3.538;2022-08-19T15:20:49;29.80;49.40
32706;DHT22;19094;50.972;3.538;2022-08-19T15:23:17;29.70;49.40
32706;DHT22;19094;50.972;3.538;2022-08-19T15:25:43;29.60;49.90
32706;DHT22;19094;50.972;3.538;2022-08-19T15:28:09;29.40;49.40
32706;DHT22;19094;50.972;3.538;2022-08-19T15:30:37;29.30;50.00
32706;DHT22;19094;50.972;3.538;2022-08-19T15:33:04;29.00;50.00
32706;DHT22;19094;50.972;3.538;2022-08-19T15:35:30;28.80;50.60
32706;DHT22;19094;50.972;3.538;2022-08-19T15:37:55;28.60;51.10
32706;DHT22;19094;50.972;3.538;2022-08-19T15:40:23;28.40;51.40
32706;DHT22;19094;50.972;3.538;2022-08-19T15:42:49;28.30;51.90
32706;DHT22;19094;50.972;3.538;2022-08-19T15:45:17;28.20;52.10
32706;DHT22;19094;50.972;3.538;2022-08-19T15:47:42;28.10;52.60